createdAt,value
2019-03-04T00:04:12.717Z,107.30
2019-03-04T00:09:18.233Z,229.23
2019-03-04T00:14:22.775Z,313.65
2019-03-04T00:21:48.577Z,453.48
2019-03-04T00:26:52.290Z,245.45
2019-03-04T00:31:55.769Z,64.30
2019-03-04T00:36:59.961Z,773.77
2019-03-04T00:42:03.746Z,645.83
2019-03-04T00:52:11.640Z,375.70
2019-03-04T00:57:15.287Z,166.30
2019-03-04T01:02:18.805Z,45.80
2019-03-04T01:07:22.422Z,16.77
2019-03-04T01:12:26.007Z,12.80
2019-03-04T01:17:29.651Z,10.40
2019-03-04T01:22:32.845Z,8.68
2019-03-04T01:27:36.673Z,7.17
2019-03-04T01:32:41.312Z,79.43
2019-03-04T01:37:44.840Z,567.87
2019-03-04T01:42:48.533Z,629.40
2019-03-04T01:52:55.666Z,101.53
2019-03-04T02:03:02.977Z,12.97
2019-03-04T02:08:06.714Z,151.50
2019-03-04T02:13:10.294Z,39.03
2019-03-04T02:18:13.644Z,14.80
2019-03-04T02:23:17.288Z,11.53
2019-03-04T02:28:20.782Z,8.23
2019-03-04T02:33:24.509Z,7.77
2019-03-04T02:38:28.401Z,261.30
2019-03-04T02:43:32.053Z,32.58
2019-03-04T02:48:35.647Z,19.27
2019-03-04T02:53:39.296Z,10.50
2019-03-04T02:58:42.776Z,6.90
2019-03-04T03:03:46.396Z,5.92
2019-03-04T03:08:49.988Z,5.70
2019-03-04T03:13:53.628Z,6.60
2019-03-04T03:18:57.501Z,5.75
2019-03-04T03:24:01.035Z,4.90
2019-03-04T03:29:04.673Z,12.23
2019-03-04T03:34:08.301Z,8.13
2019-03-04T03:39:11.810Z,5.67
2019-03-04T03:44:15.517Z,6.53
2019-03-04T03:54:22.650Z,3.50
2019-03-04T03:59:26.390Z,5.57
2019-03-04T04:04:29.934Z,4.70
2019-03-04T04:09:33.500Z,3.13
2019-03-04T04:19:40.526Z,9.13
2019-03-04T04:29:47.644Z,3.73
2019-03-04T04:34:51.284Z,4.27
2019-03-04T04:39:54.711Z,5.43
2019-03-04T04:44:58.292Z,3.47
2019-03-04T04:50:01.807Z,3.23
2019-03-04T04:55:05.414Z,3.63
2019-03-04T05:00:09.057Z,3.70
2019-03-04T05:05:12.645Z,3.67
2019-03-04T05:10:16.293Z,2.67
2019-03-04T05:15:19.782Z,3.37
2019-03-04T05:25:26.804Z,3.53
2019-03-04T05:30:30.419Z,4.50
2019-03-04T05:35:33.867Z,3.67
2019-03-04T05:40:38.019Z,5.03
2019-03-04T05:45:41.573Z,5.57
2019-03-04T05:50:45.024Z,3.67
2019-03-04T05:55:48.600Z,4.42
2019-03-04T06:00:52.419Z,3.83
2019-03-04T06:05:56.022Z,2.60
2019-03-04T06:10:59.651Z,3.93
2019-03-04T06:16:03.284Z,4.13
2019-03-04T06:21:06.775Z,3.30
2019-03-04T06:26:22.021Z,3.02
2019-03-04T06:31:25.577Z,3.05
2019-03-04T06:41:32.603Z,2.77
2019-03-04T06:46:36.269Z,3.35
2019-03-04T06:51:39.741Z,3.00
2019-03-04T06:56:43.351Z,3.67
2019-03-04T07:01:46.872Z,4.13
2019-03-04T07:06:50.628Z,3.30
2019-03-04T07:11:54.302Z,2.87
2019-03-04T07:16:57.815Z,2.50
2019-03-04T07:22:01.836Z,2.27
2019-03-04T07:27:05.654Z,2.60
2019-03-04T07:32:09.271Z,2.55
2019-03-04T07:37:12.784Z,2.67
2019-03-04T07:42:16.394Z,2.37
2019-03-04T07:47:19.995Z,2.33
2019-03-04T07:52:23.531Z,3.50
2019-03-04T08:02:30.661Z,3.00
2019-03-04T08:07:34.276Z,2.70
2019-03-04T08:12:37.791Z,2.63
2019-03-04T08:17:41.407Z,4.73
2019-03-04T08:22:45.681Z,13.40
2019-03-04T08:27:49.446Z,350.37
2019-03-04T08:32:53.132Z,351.13
2019-03-04T08:37:56.694Z,348.90
2019-03-04T08:43:00.360Z,381.73
2019-03-04T08:48:03.820Z,75.63
2019-03-04T08:53:08.015Z,17.20
2019-03-04T08:58:11.587Z,10.47
2019-03-04T09:03:15.286Z,3.33
2019-03-04T09:08:18.798Z,3.47
2019-03-04T09:13:22.403Z,3.30
2019-03-04T09:18:26.037Z,2.67
2019-03-04T09:23:31.278Z,2.60
2019-03-04T09:28:34.805Z,2.10
2019-03-04T09:33:38.501Z,2.33
2019-03-04T09:43:45.642Z,3.97
2019-03-04T09:48:49.274Z,4.33
2019-03-04T09:53:52.861Z,3.47
2019-03-04T09:58:56.486Z,3.87
2019-03-04T10:09:03.709Z,3.80
2019-03-04T10:14:07.335Z,2.53
2019-03-04T10:19:10.730Z,2.75
2019-03-04T10:24:14.356Z,2.87
2019-03-04T10:29:17.906Z,4.13
2019-03-04T10:34:22.412Z,2.30
2019-03-04T10:39:25.933Z,3.42
2019-03-04T10:44:30.072Z,1.87
2019-03-04T10:49:33.651Z,2.43
2019-03-04T10:59:40.680Z,1.60
2019-03-04T11:04:44.301Z,1.83
2019-03-04T11:09:47.812Z,1.70
2019-03-04T11:14:51.421Z,3.23
2019-03-04T11:19:55.019Z,1.63
2019-03-04T11:24:58.664Z,6.47
2019-03-04T11:30:02.277Z,1.80
2019-03-04T11:35:05.964Z,4.57
2019-03-04T11:40:09.987Z,8.60
2019-03-04T11:45:14.059Z,4.43
2019-03-04T11:50:17.664Z,4.47
2019-03-04T11:55:21.281Z,6.28
2019-03-04T12:00:26.419Z,4.07
2019-03-04T12:05:30.065Z,1.10
2019-03-04T12:10:33.654Z,4.43
2019-03-04T12:15:37.282Z,3.90
2019-03-04T12:20:40.778Z,1.40
2019-03-04T12:25:44.394Z,1.80
2019-03-04T12:31:04.260Z,1.67
2019-03-04T12:36:07.702Z,1.60
2019-03-04T12:41:11.322Z,1.23
2019-03-04T12:46:14.840Z,1.60
2019-03-04T12:51:23.238Z,1.40
2019-03-04T12:56:23.706Z,2.37
2019-03-04T13:01:27.312Z,1.23
2019-03-04T13:06:31.005Z,1.67
2019-03-04T13:11:34.552Z,1.73
2019-03-04T13:16:38.270Z,1.50
2019-03-04T13:21:41.971Z,4.07
2019-03-04T13:26:45.619Z,3.23
2019-03-04T13:31:49.579Z,2.13
2019-03-04T13:41:56.899Z,1.30
2019-03-04T13:47:00.966Z,2.37
2019-03-04T13:52:04.617Z,1.40
2019-03-04T13:57:08.270Z,1.63
2019-03-04T14:02:11.825Z,2.87
2019-03-04T14:07:15.445Z,2.87
2019-03-04T14:12:19.078Z,3.03
2019-03-04T14:17:22.695Z,1.62
2019-03-04T14:22:26.301Z,1.10
2019-03-04T14:27:29.806Z,2.77
2019-03-04T14:32:33.722Z,2.60
2019-03-04T14:37:37.357Z,2.77
2019-03-04T14:42:40.865Z,2.90
2019-03-04T14:47:44.284Z,2.33
2019-03-04T14:52:47.634Z,1.87
2019-03-04T14:57:51.295Z,1.62
2019-03-04T15:02:54.806Z,2.07
2019-03-04T15:07:58.745Z,1.87
2019-03-04T15:13:03.968Z,2.83
2019-03-04T15:18:07.904Z,4.03
2019-03-04T15:23:12.025Z,5.80
2019-03-04T15:28:15.650Z,65.97
2019-03-04T15:33:20.752Z,20.37
2019-03-04T15:38:24.720Z,12.60
2019-03-04T15:43:28.365Z,38.10
2019-03-04T15:48:31.873Z,38.97
2019-03-04T15:53:36.582Z,152.53
2019-03-04T15:58:40.413Z,131.10
2019-03-04T16:03:44.279Z,92.03
2019-03-04T16:08:47.850Z,124.43
2019-03-04T16:13:54.162Z,84.73
2019-03-04T16:18:57.325Z,54.27
2019-03-04T16:24:00.865Z,12.07
2019-03-04T16:29:04.674Z,6.27
2019-03-04T16:34:08.394Z,3.73
2019-03-04T16:39:12.032Z,4.83
2019-03-04T16:44:15.818Z,3.67
2019-03-04T16:49:19.542Z,2.47
2019-03-04T16:59:26.672Z,1.93
2019-03-04T17:04:30.287Z,1.63
2019-03-04T17:09:33.808Z,3.23
2019-03-04T17:14:37.417Z,2.07
2019-03-04T17:19:41.003Z,2.00
2019-03-04T17:24:45.712Z,3.87
2019-03-04T17:29:49.482Z,2.30
2019-03-04T17:39:57.743Z,1.90
2019-03-04T17:45:01.376Z,1.70
2019-03-04T17:50:04.917Z,2.13
2019-03-04T17:55:08.791Z,2.30
2019-03-04T18:00:12.508Z,1.50
2019-03-04T18:05:16.046Z,2.15
2019-03-04T18:10:19.644Z,1.43
2019-03-04T18:15:23.273Z,1.83
2019-03-04T18:20:34.537Z,1.93
2019-03-04T18:25:35.299Z,1.43
2019-03-04T18:30:38.830Z,1.70
2019-03-04T18:36:02.698Z,1.97
2019-03-04T18:41:06.272Z,1.25
2019-03-04T18:46:09.745Z,2.23
2019-03-04T18:51:13.349Z,1.60
2019-03-04T18:56:21.945Z,1.57
2019-03-04T19:01:22.316Z,1.33
2019-03-04T19:06:25.829Z,1.47
2019-03-04T19:11:29.685Z,59.60
2019-03-04T19:16:33.278Z,174.87
2019-03-04T19:21:36.778Z,14.63
2019-03-04T19:26:42.369Z,424.43
2019-03-04T19:31:45.944Z,228.67
2019-03-04T19:36:49.884Z,351.73
2019-03-04T19:41:53.598Z,100.07
2019-03-04T19:46:57.316Z,16.03
2019-03-04T19:52:00.826Z,9.70
2019-03-04T19:57:05.029Z,29.07
2019-03-04T20:07:12.949Z,401.37
2019-03-04T20:12:16.725Z,251.07
2019-03-04T20:17:20.469Z,428.80
2019-03-04T20:27:27.773Z,571.73
2019-03-04T20:32:31.601Z,771.90
2019-03-04T20:37:34.899Z,619.73
2019-03-04T20:42:38.729Z,641.47
2019-03-04T20:47:42.442Z,626.17
2019-03-04T20:52:46.137Z,621.67
2019-03-04T20:57:49.778Z,458.00
2019-03-04T21:02:54.168Z,302.37
2019-03-04T21:07:57.842Z,679.23
2019-03-04T21:13:18.640Z,971.57
2019-03-04T21:18:22.458Z,655.33
2019-03-04T21:23:26.141Z,562.87
2019-03-04T21:28:29.789Z,832.43
2019-03-04T21:33:33.512Z,846.40
2019-03-04T21:43:40.748Z,625.65
2019-03-04T21:48:44.480Z,455.60
2019-03-04T21:53:48.983Z,442.77
2019-03-04T21:58:55.685Z,497.03
2019-03-04T22:03:59.418Z,1142.60
2019-03-04T22:09:03.125Z,1013.70
2019-03-04T22:14:06.852Z,895.73
2019-03-04T22:19:10.961Z,1007.67
2019-03-04T22:24:16.984Z,1087.00
2019-03-04T22:29:21.918Z,1102.70
2019-03-04T22:34:27.827Z,1212.93
2019-03-04T22:39:32.625Z,1253.00
2019-03-04T22:44:37.404Z,707.57
2019-03-04T22:49:41.464Z,711.43
2019-03-04T22:54:47.028Z,685.73
2019-03-04T22:59:50.771Z,852.63
2019-03-04T23:04:54.485Z,572.97
2019-03-04T23:15:01.605Z,191.63
2019-03-04T23:20:05.949Z,66.10
2019-03-04T23:25:10.009Z,27.90
2019-03-04T23:30:13.671Z,20.30
2019-03-04T23:35:18.091Z,13.20
2019-03-04T23:40:22.029Z,11.90
2019-03-04T23:45:27.010Z,10.57
2019-03-04T23:50:30.608Z,9.93
2019-03-04T23:55:35.964Z,8.93
